LICA/SUF METAR and TAF weather

Enter ICAO airport designator
Station Type Date Time Source
LICA METAR 2019/08/19 00:50 UTC NOAA

LICA 190050Z 07005KT CAVOK 19/18 Q1016


Station Type Date Time Source
LICA Decoded METAR 2019/08/19 00:50 UTC NOAA

Station name not available
Aug 18, 2019 - 08:50 PM EDT / 2019.08.19 0050 UTC
Wind: from the ENE (070 degrees) at 6 MPH (5 KT):0
Visibility: greater than 7 mile(s):0
Temperature: 66 F (19 C)
Dew Point: 64 F (18 C)
Relative Humidity: 93%
Pressure (altimeter): 30.00 in. Hg (1016 hPa)
ob: LICA 190050Z 07005KT CAVOK 19/18 Q1016
cycle: 1

Station Type Date Time Source
LICA TAF 2019/08/18 18:21 UTC NOAA

TAF LICA 181700Z 1818/1918 27010KT 9999 FEW030
BECMG 1818/1820 08006KT
BECMG 1909/1911 27012KT

Example: see airport list